createdAt,value
2019-04-03T00:02:01.164Z,4.80
2019-04-03T00:04:28.584Z,4.70
2019-04-03T00:06:56.299Z,4.70
2019-04-03T00:09:23.847Z,5.10
2019-04-03T00:11:51.434Z,4.60
2019-04-03T00:14:19.030Z,4.60
2019-04-03T00:16:46.355Z,4.50
2019-04-03T00:19:13.849Z,4.50
2019-04-03T00:24:30.763Z,4.50
2019-04-03T00:26:58.568Z,4.40
2019-04-03T00:29:26.306Z,4.40
2019-04-03T00:31:53.984Z,4.30
2019-04-03T00:34:23.000Z,4.30
2019-04-03T00:36:52.913Z,4.20
2019-04-03T00:39:20.220Z,4.20
2019-04-03T00:41:47.710Z,4.40
2019-04-03T00:44:15.341Z,4.10
2019-04-03T00:46:43.035Z,4.10
2019-04-03T00:49:10.633Z,4.20
2019-04-03T00:51:38.175Z,4.00
2019-04-03T00:54:05.774Z,3.90
2019-04-03T00:56:33.287Z,3.90
2019-04-03T00:59:00.936Z,3.90
2019-04-03T01:01:28.425Z,3.80
2019-04-03T01:03:58.128Z,3.80
2019-04-03T01:06:26.660Z,3.80
2019-04-03T01:08:55.116Z,3.80
2019-04-03T01:11:22.686Z,3.80
2019-04-03T01:13:51.135Z,3.90
2019-04-03T01:16:18.602Z,3.80
2019-04-03T01:18:46.779Z,3.70
2019-04-03T01:21:14.265Z,3.70
2019-04-03T01:23:41.724Z,3.60
2019-04-03T01:26:10.251Z,3.60
2019-04-03T01:28:41.923Z,3.50
2019-04-03T01:31:09.782Z,3.40
2019-04-03T01:33:37.342Z,3.40
2019-04-03T01:36:04.904Z,3.30
2019-04-03T01:38:32.386Z,3.20
2019-04-03T01:40:59.811Z,3.10
2019-04-03T01:43:27.169Z,3.00
2019-04-03T01:45:56.575Z,3.00
2019-04-03T01:48:23.927Z,3.00
2019-04-03T01:50:51.312Z,2.90
2019-04-03T01:53:18.731Z,2.90
2019-04-03T01:55:46.589Z,2.90
2019-04-03T01:58:13.883Z,2.80
2019-04-03T02:00:41.513Z,2.80
2019-04-03T02:03:10.270Z,2.90
2019-04-03T02:05:39.592Z,2.80
2019-04-03T02:08:07.291Z,2.40
2019-04-03T02:10:35.953Z,2.70
2019-04-03T02:13:03.754Z,2.70
2019-04-03T02:15:31.307Z,2.60
2019-04-03T02:17:59.730Z,2.60
2019-04-03T02:20:27.297Z,2.60
2019-04-03T02:22:54.715Z,2.50
2019-04-03T02:25:22.167Z,2.50
2019-04-03T02:27:49.794Z,2.70
2019-04-03T02:30:18.539Z,2.40
2019-04-03T02:32:46.181Z,2.40
2019-04-03T02:35:14.662Z,2.40
2019-04-03T02:37:42.227Z,2.40
2019-04-03T02:40:09.731Z,2.50
2019-04-03T02:42:40.399Z,2.40
2019-04-03T02:45:06.550Z,2.40
2019-04-03T02:47:34.709Z,2.40
2019-04-03T02:50:02.657Z,2.30
2019-04-03T02:52:30.119Z,2.20
2019-04-03T02:54:57.577Z,2.20
2019-04-03T02:57:25.137Z,2.10
2019-04-03T02:59:52.682Z,2.00
2019-04-03T03:02:20.276Z,2.00
2019-04-03T03:04:48.193Z,1.90
2019-04-03T03:07:15.886Z,1.90
2019-04-03T03:09:46.734Z,1.80
2019-04-03T03:12:15.089Z,1.80
2019-04-03T03:14:42.761Z,1.70
2019-04-03T03:17:11.371Z,1.70
2019-04-03T03:19:39.324Z,1.60
2019-04-03T03:22:07.274Z,1.60
2019-04-03T03:24:35.217Z,1.50
2019-04-03T03:27:03.229Z,1.50
2019-04-03T03:29:31.431Z,1.40
2019-04-03T03:32:11.624Z,1.40
2019-04-03T03:34:47.559Z,1.30
2019-04-03T03:37:02.231Z,1.30
2019-04-03T03:39:28.795Z,1.30
2019-04-03T03:41:58.299Z,1.20
2019-04-03T03:44:27.069Z,1.20
2019-04-03T03:46:59.842Z,1.10
2019-04-03T03:49:25.995Z,1.20
2019-04-03T03:51:55.229Z,1.00
2019-04-03T03:54:23.338Z,1.00
2019-04-03T03:56:51.354Z,1.00
2019-04-03T03:59:19.721Z,0.90
2019-04-03T04:01:48.710Z,0.90
2019-04-03T04:04:16.498Z,1.00
2019-04-03T04:06:44.074Z,1.00
2019-04-03T04:09:13.601Z,1.00
2019-04-03T04:11:41.117Z,1.00
2019-04-03T04:14:09.346Z,1.00
2019-04-03T04:16:38.155Z,1.00
2019-04-03T04:19:06.734Z,1.10
2019-04-03T04:21:35.262Z,1.10
2019-04-03T04:24:03.299Z,1.10
2019-04-03T04:26:31.601Z,1.20
2019-04-03T04:29:00.137Z,1.30
2019-04-03T04:31:27.511Z,1.40
2019-04-03T04:33:55.101Z,1.50
2019-04-03T04:36:24.244Z,1.60
2019-04-03T04:38:51.919Z,1.80
2019-04-03T04:41:19.491Z,2.00
2019-04-03T04:43:46.917Z,2.10
2019-04-03T04:46:14.745Z,2.20
2019-04-03T04:48:42.319Z,2.40
2019-04-03T04:51:09.863Z,2.50
2019-04-03T04:53:37.397Z,2.60
2019-04-03T04:56:06.576Z,2.70
2019-04-03T04:58:34.346Z,2.90
2019-04-03T05:01:01.665Z,3.00
2019-04-03T05:03:29.733Z,3.10
2019-04-03T05:05:58.564Z,3.30
2019-04-03T05:08:26.088Z,3.40
2019-04-03T05:10:53.438Z,3.60
2019-04-03T05:13:20.914Z,3.80
2019-04-03T05:15:48.516Z,3.90
2019-04-03T05:18:15.809Z,4.10
2019-04-03T05:20:43.784Z,4.20
2019-04-03T05:23:11.277Z,4.40
2019-04-03T05:25:39.096Z,4.50
2019-04-03T05:28:06.589Z,4.60
2019-04-03T05:30:37.775Z,4.70
2019-04-03T05:33:06.084Z,4.90
2019-04-03T05:35:33.697Z,5.00
2019-04-03T05:38:01.217Z,5.10
2019-04-03T05:40:28.540Z,5.20
2019-04-03T05:42:56.179Z,5.40
2019-04-03T05:45:24.822Z,5.50
2019-04-03T05:47:52.351Z,5.70
2019-04-03T05:50:20.324Z,5.80
2019-04-03T05:52:48.030Z,5.90
2019-04-03T05:55:15.538Z,6.00
2019-04-03T05:57:45.350Z,6.10
2019-04-03T06:00:12.606Z,6.20
2019-04-03T06:02:39.967Z,6.30
2019-04-03T06:05:07.655Z,6.40
2019-04-03T06:07:35.332Z,6.70
2019-04-03T06:10:03.389Z,6.90
2019-04-03T06:12:30.976Z,7.20
2019-04-03T06:14:58.610Z,7.60
2019-04-03T06:17:25.976Z,7.80
2019-04-03T06:19:53.445Z,8.30
2019-04-03T06:22:22.010Z,8.70
2019-04-03T06:24:49.625Z,9.00
2019-04-03T06:27:19.141Z,9.40
2019-04-03T06:29:46.911Z,9.70
2019-04-03T06:32:14.443Z,10.10
2019-04-03T06:34:43.561Z,10.40
2019-04-03T06:37:11.259Z,10.70
2019-04-03T06:39:40.278Z,10.90
2019-04-03T06:42:09.057Z,11.10
2019-04-03T06:44:36.689Z,11.30
2019-04-03T06:47:04.204Z,11.40
2019-04-03T06:49:31.670Z,11.70
2019-04-03T06:51:59.107Z,11.90
2019-04-03T06:54:26.832Z,12.30
2019-04-03T06:56:54.212Z,12.70
2019-04-03T06:59:23.017Z,13.00
2019-04-03T07:01:52.841Z,13.50
2019-04-03T07:04:20.743Z,14.10
2019-04-03T07:06:49.909Z,14.60
2019-04-03T07:09:23.990Z,15.20
2019-04-03T07:11:48.208Z,15.70
2019-04-03T07:14:15.899Z,16.20
2019-04-03T07:16:43.639Z,16.70
2019-04-03T07:19:11.058Z,17.10
2019-04-03T07:21:38.501Z,17.50
2019-04-03T07:24:05.966Z,17.80
2019-04-03T07:26:35.577Z,18.10
2019-04-03T07:29:03.419Z,18.50
2019-04-03T07:31:31.155Z,18.90
2019-04-03T07:34:01.912Z,19.20
2019-04-03T07:36:29.220Z,19.60
2019-04-03T07:38:58.583Z,20.00
2019-04-03T07:41:26.531Z,20.40
2019-04-03T07:43:53.910Z,20.90
2019-04-03T07:46:23.294Z,21.60
2019-04-03T07:48:51.420Z,21.90
2019-04-03T07:51:18.858Z,22.40
2019-04-03T07:53:46.365Z,22.80
2019-04-03T07:56:13.777Z,23.30
2019-04-03T07:58:41.075Z,23.70
2019-04-03T08:01:10.890Z,24.20
2019-04-03T08:03:39.534Z,24.60
2019-04-03T08:06:07.309Z,24.90
2019-04-03T08:08:36.518Z,25.20
2019-04-03T08:11:04.108Z,25.70
2019-04-03T08:13:31.549Z,25.90
2019-04-03T08:15:59.316Z,26.60
2019-04-03T08:18:26.722Z,27.00
2019-04-03T08:20:55.133Z,27.50
2019-04-03T08:23:23.810Z,28.00
2019-04-03T08:25:54.009Z,28.60
2019-04-03T08:28:21.164Z,29.00
2019-04-03T08:30:48.648Z,29.70
2019-04-03T08:33:36.281Z,30.70
2019-04-03T08:36:06.622Z,31.40
2019-04-03T08:38:36.346Z,31.80
2019-04-03T08:41:04.440Z,32.40
2019-04-03T08:43:33.077Z,32.90
2019-04-03T08:46:00.730Z,33.60
2019-04-03T08:48:28.436Z,34.00
2019-04-03T08:50:58.008Z,34.50
2019-04-03T08:53:25.438Z,34.80
2019-04-03T08:55:53.471Z,35.00
2019-04-03T08:58:25.394Z,35.50
2019-04-03T09:00:52.140Z,35.70
2019-04-03T09:03:19.605Z,35.80
2019-04-03T09:05:50.132Z,35.90
2019-04-03T09:08:16.725Z,36.50
2019-04-03T09:10:44.424Z,37.10
2019-04-03T09:13:17.749Z,37.30
2019-04-03T09:15:41.815Z,37.60
2019-04-03T09:18:09.311Z,38.20
2019-04-03T09:20:36.980Z,38.70
2019-04-03T09:23:04.478Z,38.90
2019-04-03T09:25:32.604Z,39.40
2019-04-03T09:28:00.775Z,39.70
2019-04-03T09:30:28.552Z,39.80
2019-04-03T09:32:59.554Z,40.10
2019-04-03T09:35:26.673Z,39.60
2019-04-03T09:37:54.327Z,38.40
2019-04-03T09:40:22.498Z,37.40
2019-04-03T09:42:51.591Z,37.40
2019-04-03T09:45:19.781Z,36.30
2019-04-03T09:47:47.367Z,36.10
2019-04-03T09:50:16.317Z,35.40
2019-04-03T09:52:48.969Z,34.50
2019-04-03T09:55:13.693Z,33.30
2019-04-03T09:57:41.633Z,32.30
2019-04-03T10:00:11.739Z,31.80
2019-04-03T10:02:39.315Z,31.80
2019-04-03T10:05:07.008Z,31.20
2019-04-03T10:07:36.384Z,31.70
2019-04-03T10:10:05.575Z,32.50
2019-04-03T10:12:33.358Z,32.90
2019-04-03T10:15:00.845Z,34.10
2019-04-03T10:17:28.378Z,36.10
2019-04-03T10:19:55.728Z,37.90
2019-04-03T10:22:24.124Z,38.90
2019-04-03T10:24:52.281Z,39.80
2019-04-03T10:27:19.846Z,40.60
2019-04-03T10:29:49.150Z,41.10
2019-04-03T10:32:17.484Z,41.20
2019-04-03T10:34:44.947Z,41.40
2019-04-03T10:37:14.439Z,41.70
2019-04-03T10:39:44.285Z,41.80
2019-04-03T10:42:11.320Z,42.30
2019-04-03T10:44:38.996Z,42.90
2019-04-03T10:47:06.793Z,43.40
2019-04-03T10:49:34.924Z,43.70
2019-04-03T10:52:02.498Z,43.80
2019-04-03T10:54:29.848Z,43.80
2019-04-03T10:56:57.509Z,44.10
2019-04-03T10:59:25.395Z,43.60
2019-04-03T11:01:52.707Z,43.40
2019-04-03T11:04:20.093Z,42.80
2019-04-03T11:06:47.540Z,43.30
2019-04-03T11:09:14.915Z,43.60
2019-04-03T11:11:43.574Z,42.80
2019-04-03T11:14:11.895Z,42.10
2019-04-03T11:16:39.565Z,42.30
2019-04-03T11:19:07.505Z,43.60
2019-04-03T11:23:06.359Z,44.60
2019-04-03T11:25:30.063Z,45.10
2019-04-03T11:27:57.670Z,46.10
2019-04-03T11:30:25.691Z,45.20
2019-04-03T11:32:53.269Z,43.40
2019-04-03T11:35:22.287Z,42.20
2019-04-03T11:37:53.094Z,40.80
2019-04-03T11:40:24.533Z,40.30
2019-04-03T11:42:51.157Z,39.80
2019-04-03T11:45:20.709Z,39.50
2019-04-03T11:47:48.161Z,38.20
2019-04-03T11:50:18.154Z,37.60
2019-04-03T11:52:45.935Z,36.60
2019-04-03T11:55:15.038Z,34.50
2019-04-03T11:57:43.417Z,33.10
2019-04-03T12:00:16.693Z,32.00
2019-04-03T12:06:02.523Z,30.20
2019-04-03T12:08:31.961Z,29.70
2019-04-03T12:10:59.552Z,29.00
2019-04-03T12:13:28.521Z,28.80
2019-04-03T12:15:58.135Z,28.50
2019-04-03T12:18:25.505Z,28.00
2019-04-03T12:20:53.296Z,27.80
2019-04-03T12:23:21.799Z,27.50
2019-04-03T12:25:49.226Z,27.40
2019-04-03T12:28:18.456Z,27.40
2019-04-03T12:30:46.053Z,27.10
2019-04-03T12:33:13.750Z,27.10
2019-04-03T12:35:42.477Z,27.40
2019-04-03T12:38:10.489Z,27.70
2019-04-03T12:40:37.898Z,27.80
2019-04-03T12:43:05.809Z,27.60
2019-04-03T12:45:34.965Z,27.30
2019-04-03T12:48:02.723Z,27.10
2019-04-03T12:50:30.391Z,27.20
2019-04-03T12:52:58.228Z,27.90
2019-04-03T12:55:26.805Z,28.70
2019-04-03T12:57:54.706Z,29.20
2019-04-03T13:00:22.641Z,29.00
2019-04-03T13:02:52.406Z,28.80
2019-04-03T13:05:19.653Z,28.40
2019-04-03T13:07:47.713Z,27.60
2019-04-03T13:10:15.969Z,27.20
2019-04-03T13:12:43.590Z,27.00
2019-04-03T13:15:11.799Z,26.70
2019-04-03T13:17:39.408Z,26.10
2019-04-03T13:20:08.029Z,26.00
2019-04-03T13:23:56.215Z,25.90
2019-04-03T13:26:25.347Z,25.80
2019-04-03T13:28:54.479Z,25.40
2019-04-03T13:31:24.069Z,25.10
2019-04-03T13:33:52.304Z,25.20
2019-04-03T13:36:23.029Z,25.30
2019-04-03T13:38:51.278Z,25.10
2019-04-03T13:41:19.604Z,24.90
2019-04-03T13:43:48.684Z,24.90
2019-04-03T13:46:16.505Z,24.70
2019-04-03T13:48:44.965Z,24.60
2019-04-03T13:51:13.237Z,24.40
2019-04-03T13:53:40.930Z,24.10
2019-04-03T13:56:11.173Z,23.90
2019-04-03T13:58:37.687Z,23.80
2019-04-03T14:01:07.990Z,23.80
2019-04-03T14:03:35.208Z,23.70
2019-04-03T14:06:04.480Z,23.50
2019-04-03T14:08:33.221Z,23.50
2019-04-03T14:11:00.846Z,23.50
2019-04-03T14:13:29.779Z,23.50
2019-04-03T14:15:57.170Z,23.50
2019-04-03T14:18:25.006Z,23.40
2019-04-03T14:20:54.046Z,23.30
2019-04-03T14:23:21.880Z,23.20
2019-04-03T14:25:49.410Z,23.10
2019-04-03T14:28:17.337Z,23.10
2019-04-03T14:30:45.836Z,23.00
2019-04-03T14:33:14.585Z,22.90
2019-04-03T14:35:50.343Z,22.80
2019-04-03T14:38:12.430Z,22.80
2019-04-03T14:40:43.075Z,22.60
2019-04-03T14:43:10.314Z,22.50
2019-04-03T14:45:39.747Z,22.50
2019-04-03T14:48:08.192Z,22.60
2019-04-03T14:50:38.128Z,22.50
2019-04-03T14:53:05.116Z,22.40
2019-04-03T14:55:40.665Z,22.30
2019-04-03T14:58:02.280Z,22.20
2019-04-03T15:00:31.907Z,22.20
2019-04-03T15:03:00.601Z,22.20
2019-04-03T15:05:28.142Z,22.20
2019-04-03T15:07:56.077Z,22.20
2019-04-03T15:10:25.253Z,22.20
2019-04-03T15:12:54.718Z,22.20
2019-04-03T15:15:27.572Z,22.20
2019-04-03T15:17:55.301Z,22.00
2019-04-03T15:20:24.169Z,22.00
2019-04-03T15:22:52.020Z,21.90
2019-04-03T15:25:20.954Z,21.80
2019-04-03T15:27:49.346Z,21.80
2019-04-03T15:30:18.773Z,21.70
2019-04-03T15:32:46.370Z,21.60
2019-04-03T15:35:13.989Z,21.40
2019-04-03T15:37:42.547Z,21.30
2019-04-03T15:40:10.745Z,21.30
2019-04-03T15:42:40.319Z,21.20
2019-04-03T15:45:08.903Z,21.00
2019-04-03T15:47:41.733Z,20.90
2019-04-03T15:50:07.666Z,20.80
2019-04-03T15:52:35.179Z,20.60
2019-04-03T15:55:04.911Z,20.40
2019-04-03T15:57:33.108Z,20.40
2019-04-03T16:00:02.844Z,20.30
2019-04-03T16:02:32.560Z,20.10
2019-04-03T16:05:00.710Z,20.10
2019-04-03T16:07:32.830Z,19.90
2019-04-03T16:10:01.292Z,19.90
2019-04-03T16:12:29.231Z,19.60
2019-04-03T16:14:57.480Z,19.60
2019-04-03T16:17:26.957Z,19.40
2019-04-03T16:19:54.508Z,19.30
2019-04-03T16:22:22.588Z,19.10
2019-04-03T16:24:53.899Z,18.90
2019-04-03T16:27:23.514Z,18.80
2019-04-03T16:30:27.682Z,18.60
2019-04-03T16:32:59.727Z,18.50
2019-04-03T16:35:26.852Z,18.30
2019-04-03T16:37:57.994Z,18.10
2019-04-03T16:40:27.431Z,18.00
2019-04-03T16:42:55.288Z,17.80
2019-04-03T16:45:23.416Z,17.70
2019-04-03T16:48:49.936Z,17.50
2019-04-03T16:51:20.284Z,17.40
2019-04-03T16:53:50.581Z,17.10
2019-04-03T16:56:19.052Z,17.00
2019-04-03T16:58:46.614Z,16.90
2019-04-03T17:01:14.658Z,16.70
2019-04-03T17:03:43.863Z,16.60
2019-04-03T17:06:13.208Z,16.40
2019-04-03T17:08:41.384Z,16.30
2019-04-03T17:11:09.902Z,16.10
2019-04-03T17:13:39.884Z,15.90
2019-04-03T17:16:07.877Z,15.80
2019-04-03T17:18:35.223Z,15.70
2019-04-03T17:21:02.931Z,15.60
2019-04-03T17:23:30.826Z,15.50
2019-04-03T17:25:58.573Z,15.40
2019-04-03T17:28:27.315Z,15.30
2019-04-03T17:30:56.042Z,15.20
2019-04-03T17:33:23.979Z,15.10
2019-04-03T17:35:52.173Z,15.00
2019-04-03T17:38:19.661Z,14.90
2019-04-03T17:40:47.313Z,15.00
2019-04-03T17:43:16.882Z,14.80
2019-04-03T17:45:46.172Z,14.60
2019-04-03T17:48:13.931Z,14.60
2019-04-03T17:50:41.616Z,14.50
2019-04-03T17:53:09.083Z,14.30
2019-04-03T17:55:36.784Z,14.30
2019-04-03T17:58:04.474Z,14.10
2019-04-03T18:00:33.385Z,14.00
2019-04-03T18:03:08.586Z,13.90
2019-04-03T18:05:42.012Z,13.80
2019-04-03T18:08:09.950Z,13.70
2019-04-03T18:10:37.523Z,13.60
2019-04-03T18:13:05.881Z,13.50
2019-04-03T18:15:33.465Z,13.40
2019-04-03T18:18:02.848Z,13.30
2019-04-03T18:20:31.550Z,13.20
2019-04-03T18:22:59.186Z,13.10
2019-04-03T18:25:28.805Z,13.00
2019-04-03T18:27:56.719Z,12.90
2019-04-03T18:30:26.395Z,12.90
2019-04-03T18:32:53.861Z,12.80
2019-04-03T18:35:21.433Z,12.60
2019-04-03T18:37:48.903Z,12.60
2019-04-03T18:40:17.464Z,12.50
2019-04-03T18:42:45.047Z,12.30
2019-04-03T18:45:24.696Z,12.30
2019-04-03T18:47:45.790Z,12.20
2019-04-03T18:50:12.244Z,12.20
2019-04-03T18:52:40.667Z,12.10
2019-04-03T18:55:10.056Z,12.10
2019-04-03T18:57:38.459Z,11.90
2019-04-03T19:00:38.114Z,11.90
2019-04-03T19:03:09.895Z,12.00
2019-04-03T19:05:46.200Z,11.80
2019-04-03T19:08:18.211Z,11.80
2019-04-03T19:10:46.260Z,11.70
2019-04-03T19:13:14.745Z,11.70
2019-04-03T19:15:42.467Z,11.60
2019-04-03T19:18:19.396Z,11.60
2019-04-03T19:20:40.940Z,11.50
2019-04-03T19:23:10.992Z,11.50
2019-04-03T19:25:39.234Z,11.60
2019-04-03T19:28:08.902Z,11.60
2019-04-03T19:30:37.995Z,11.60
2019-04-03T19:33:05.964Z,11.50
2019-04-03T19:35:33.427Z,11.50
2019-04-03T19:38:01.071Z,11.30
2019-04-03T19:40:28.503Z,11.20
2019-04-03T19:42:56.102Z,11.20
2019-04-03T19:45:23.584Z,11.10
2019-04-03T19:47:51.074Z,11.00
2019-04-03T19:50:18.511Z,11.00
2019-04-03T19:52:46.973Z,10.90
2019-04-03T19:55:14.590Z,10.90
2019-04-03T19:57:42.078Z,10.80
2019-04-03T20:00:10.367Z,10.80
2019-04-03T20:02:38.614Z,10.70
2019-04-03T20:05:08.131Z,10.70
2019-04-03T20:07:35.997Z,10.60
2019-04-03T20:10:05.714Z,10.50
2019-04-03T20:12:33.378Z,10.60
2019-04-03T20:15:02.395Z,10.40
2019-04-03T20:17:30.253Z,10.40
2019-04-03T20:19:58.400Z,10.40
2019-04-03T20:22:25.956Z,10.40
2019-04-03T20:24:59.887Z,10.40
2019-04-03T20:27:23.151Z,10.40
2019-04-03T20:29:50.878Z,10.40
2019-04-03T20:32:18.400Z,10.40
2019-04-03T20:34:46.916Z,10.50
2019-04-03T20:37:15.344Z,10.30
2019-04-03T20:39:43.671Z,10.30
2019-04-03T20:42:11.587Z,10.30
2019-04-03T20:44:40.166Z,10.30
2019-04-03T20:47:07.811Z,10.30
2019-04-03T20:49:35.770Z,10.30
2019-04-03T20:52:04.443Z,10.30
2019-04-03T20:54:32.139Z,10.30
2019-04-03T20:57:02.294Z,10.20
2019-04-03T20:59:30.228Z,10.20
2019-04-03T21:01:57.708Z,10.00
2019-04-03T21:04:25.204Z,10.00
2019-04-03T21:06:53.142Z,9.90
2019-04-03T21:09:20.664Z,9.90
2019-04-03T21:11:48.276Z,9.90
2019-04-03T21:14:18.375Z,9.80
2019-04-03T21:16:48.121Z,9.80
2019-04-03T21:19:15.789Z,9.70
2019-04-03T21:21:43.389Z,9.70
2019-04-03T21:24:14.057Z,9.60
2019-04-03T21:26:41.637Z,9.60
2019-04-03T21:29:09.139Z,9.60
2019-04-03T21:31:36.542Z,9.50
2019-04-03T21:34:04.101Z,9.50
2019-04-03T21:36:33.205Z,9.50
2019-04-03T21:39:00.770Z,9.40
2019-04-03T21:41:28.239Z,9.40
2019-04-03T21:43:55.774Z,9.40
2019-04-03T21:46:23.371Z,9.20
2019-04-03T21:48:50.827Z,9.40
2019-04-03T21:51:18.949Z,9.30
2019-04-03T21:53:47.787Z,9.30
2019-04-03T21:56:15.307Z,9.30
2019-04-03T21:58:45.506Z,9.30
2019-04-03T22:01:18.943Z,9.30
2019-04-03T22:03:47.030Z,9.20
2019-04-03T22:06:14.771Z,9.10
2019-04-03T22:08:42.324Z,9.10
2019-04-03T22:11:09.974Z,9.00
2019-04-03T22:13:38.427Z,9.00
2019-04-03T22:16:06.489Z,9.00
2019-04-03T22:18:33.986Z,9.00
2019-04-03T22:21:02.526Z,8.90
2019-04-03T22:23:30.184Z,8.90
2019-04-03T22:25:57.555Z,8.90
2019-04-03T22:28:25.597Z,8.90
2019-04-03T22:30:53.124Z,8.90
2019-04-03T22:33:20.464Z,8.80
2019-04-03T22:35:47.998Z,8.80
2019-04-03T22:38:15.474Z,8.70
2019-04-03T22:40:42.839Z,8.70
2019-04-03T22:43:10.265Z,8.60
2019-04-03T22:45:37.766Z,8.60
2019-04-03T22:48:05.311Z,8.50
2019-04-03T22:50:33.493Z,8.40
2019-04-03T22:53:01.967Z,8.40
2019-04-03T22:55:29.492Z,8.30
2019-04-03T22:57:56.956Z,8.20
2019-04-03T23:00:25.849Z,8.20
2019-04-03T23:02:53.771Z,8.10
2019-04-03T23:05:21.264Z,8.10
2019-04-03T23:07:51.775Z,8.10
2019-04-03T23:10:18.195Z,8.10
2019-04-03T23:12:45.552Z,8.10
2019-04-03T23:15:13.248Z,8.10
2019-04-03T23:17:40.808Z,8.00
2019-04-03T23:20:08.554Z,8.00
2019-04-03T23:22:36.046Z,8.00
2019-04-03T23:25:04.162Z,7.90
2019-04-03T23:27:32.979Z,7.90
2019-04-03T23:30:00.951Z,7.90
2019-04-03T23:32:29.392Z,7.80
2019-04-03T23:35:11.770Z,7.80
2019-04-03T23:37:39.199Z,7.80
2019-04-03T23:40:07.263Z,8.00
2019-04-03T23:42:35.883Z,7.90
2019-04-03T23:45:04.568Z,7.90
2019-04-03T23:47:32.039Z,7.90
2019-04-03T23:49:59.514Z,8.00
2019-04-03T23:52:29.635Z,7.90
2019-04-03T23:54:56.230Z,7.90
2019-04-03T23:57:23.794Z,7.90
2019-04-03T23:59:51.186Z,7.90
